CSC9985 RJCM-RJCC
Flight info
| Callsign | CSC9985 |
|---|---|
| Flight time | 0h 28m |
| Altitude | 22000 |
| Route | OLDUS Y14 BOKSO V5 CHE |
| Aircraft | A319/M-SDE3FGHIRWY/LB1 |
Departure
| Time | 2026-05-09 13:50 |
|---|---|
| Airport | Memanbetsu Airport (RJCM) |
Arrival
| Time | 2026-05-09 14:19 |
|---|---|
| Airport | New Chitose Airport (RJCC) |
| Time | Latitude | Longitude | Altitude | Speed | Heading |
|---|---|---|---|---|---|
| 2026-05-09 13:28 | 43.88026 | 144.15979 | 121 ft | 0 kts | 263° |
| 2026-05-09 13:40 | 43.88027 | 144.15996 | 121 ft | 3 kts | 264° |
| 2026-05-09 13:40 | 43.88030 | 144.16028 | 114 ft | 3 kts | 264° |
| 2026-05-09 13:40 | 43.88032 | 144.16060 | 118 ft | 3 kts | 264° |
| 2026-05-09 13:40 | 43.88034 | 144.16087 | 119 ft | 3 kts | 264° |
| 2026-05-09 13:41 | 43.88034 | 144.16118 | 119 ft | 3 kts | 285° |
| 2026-05-09 13:41 | 43.88025 | 144.16147 | 115 ft | 3 kts | 301° |
| 2026-05-09 13:41 | 43.88020 | 144.16159 | 115 ft | 0 kts | 302° |
| 2026-05-09 13:44 | 43.88024 | 144.16154 | 116 ft | 2 kts | 316° |
| 2026-05-09 13:44 | 43.88035 | 144.16159 | 115 ft | 4 kts | 10° |
| 2026-05-09 13:44 | 43.88076 | 144.16169 | 119 ft | 8 kts | 9° |
| 2026-05-09 13:44 | 43.88144 | 144.16154 | 118 ft | 12 kts | 349° |
| 2026-05-09 13:45 | 43.88238 | 144.16146 | 116 ft | 16 kts | 355° |
| 2026-05-09 13:45 | 43.88360 | 144.16131 | 116 ft | 20 kts | 354° |
| 2026-05-09 13:45 | 43.88519 | 144.16110 | 115 ft | 26 kts | 355° |
| 2026-05-09 13:45 | 43.88713 | 144.16085 | 116 ft | 30 kts | 354° |
| 2026-05-09 13:46 | 43.88880 | 144.16063 | 116 ft | 22 kts | 354° |
| 2026-05-09 13:46 | 43.89055 | 144.16041 | 111 ft | 25 kts | 354° |
| 2026-05-09 13:46 | 43.89144 | 144.16059 | 110 ft | 15 kts | 47° |
| 2026-05-09 13:46 | 43.89159 | 144.16137 | 109 ft | 0 kts | 85° |
| 2026-05-09 13:49 | 43.89159 | 144.16141 | 109 ft | 1 kts | 85° |
| 2026-05-09 13:49 | 43.89161 | 144.16181 | 107 ft | 6 kts | 85° |
| 2026-05-09 13:49 | 43.89157 | 144.16232 | 112 ft | 4 kts | 119° |
| 2026-05-09 13:49 | 43.89112 | 144.16262 | 112 ft | 14 kts | 178° |
| 2026-05-09 13:50 | 43.88896 | 144.16291 | 113 ft | 65 kts | 174° |
| 2026-05-09 13:50 | 43.88186 | 144.16382 | 123 ft | 138 kts | 175° |
| 2026-05-09 13:50 | 43.87178 | 144.16537 | 700 ft | 145 kts | 175° |
| 2026-05-09 13:50 | 43.86179 | 144.16465 | 1364 ft | 148 kts | 211° |
| 2026-05-09 13:51 | 43.85482 | 144.15490 | 1986 ft | 144 kts | 248° |
| 2026-05-09 13:51 | 43.84965 | 144.14204 | 2559 ft | 164 kts | 249° |
| 2026-05-09 13:51 | 43.84387 | 144.12750 | 3084 ft | 180 kts | 249° |
| 2026-05-09 13:51 | 43.83738 | 144.11162 | 3599 ft | 200 kts | 247° |
| 2026-05-09 13:52 | 43.82999 | 144.09416 | 4105 ft | 220 kts | 246° |
| 2026-05-09 13:52 | 43.82165 | 144.07489 | 4643 ft | 246 kts | 244° |
| 2026-05-09 13:52 | 43.81244 | 144.05391 | 5450 ft | 260 kts | 244° |
| 2026-05-09 13:52 | 43.80283 | 144.03235 | 6519 ft | 264 kts | 244° |
| 2026-05-09 13:53 | 43.79309 | 144.01059 | 7583 ft | 268 kts | 244° |
| 2026-05-09 13:53 | 43.78318 | 143.98852 | 8585 ft | 272 kts | 243° |
| 2026-05-09 13:53 | 43.77310 | 143.96605 | 9568 ft | 277 kts | 243° |
| 2026-05-09 13:53 | 43.76276 | 143.94295 | 10214 ft | 292 kts | 243° |
| 2026-05-09 13:54 | 43.75169 | 143.91807 | 10534 ft | 316 kts | 243° |
| 2026-05-09 13:54 | 43.73979 | 143.89139 | 10959 ft | 333 kts | 243° |
| 2026-05-09 13:54 | 43.72761 | 143.86425 | 11639 ft | 340 kts | 242° |
| 2026-05-09 13:54 | 43.71505 | 143.83630 | 12376 ft | 345 kts | 242° |
| 2026-05-09 13:55 | 43.70230 | 143.80803 | 13119 ft | 349 kts | 242° |
| 2026-05-09 13:55 | 43.68932 | 143.77934 | 13813 ft | 354 kts | 242° |
| 2026-05-09 13:55 | 43.67620 | 143.75033 | 14477 ft | 358 kts | 242° |
| 2026-05-09 13:55 | 43.66299 | 143.72105 | 15150 ft | 361 kts | 241° |
| 2026-05-09 13:56 | 43.64897 | 143.69503 | 15775 ft | 367 kts | 232° |
| 2026-05-09 13:56 | 43.64347 | 143.68692 | 15989 ft | 369 kts | 229° |
| 2026-05-09 13:56 | 43.62455 | 143.66260 | 16674 ft | 374 kts | 226° |
| 2026-05-09 13:56 | 43.60535 | 143.63821 | 17367 ft | 377 kts | 226° |
| 2026-05-09 13:57 | 43.58599 | 143.61355 | 18094 ft | 381 kts | 226° |
| 2026-05-09 13:57 | 43.56646 | 143.58862 | 18713 ft | 384 kts | 226° |
| 2026-05-09 13:57 | 43.54676 | 143.56348 | 19336 ft | 388 kts | 225° |
| 2026-05-09 13:57 | 43.52687 | 143.53810 | 19969 ft | 392 kts | 226° |
| 2026-05-09 13:58 | 43.50676 | 143.51244 | 20586 ft | 396 kts | 225° |
| 2026-05-09 13:58 | 43.48650 | 143.48660 | 21221 ft | 398 kts | 225° |
| 2026-05-09 13:58 | 43.46612 | 143.46070 | 21608 ft | 399 kts | 225° |
| 2026-05-09 13:58 | 43.44561 | 143.43464 | 21697 ft | 406 kts | 225° |
| 2026-05-09 13:59 | 43.42463 | 143.40799 | 21693 ft | 412 kts | 225° |
| 2026-05-09 13:59 | 43.40355 | 143.38121 | 21691 ft | 413 kts | 225° |
| 2026-05-09 13:59 | 43.38242 | 143.35440 | 21691 ft | 413 kts | 225° |
| 2026-05-09 13:59 | 43.36155 | 143.32794 | 21685 ft | 413 kts | 225° |
| 2026-05-09 14:00 | 43.34036 | 143.30120 | 21679 ft | 414 kts | 225° |
| 2026-05-09 14:00 | 43.33318 | 143.29214 | 21669 ft | 413 kts | 225° |
| 2026-05-09 14:00 | 43.29806 | 143.24789 | 21674 ft | 411 kts | 225° |
| 2026-05-09 14:00 | 43.27700 | 143.22139 | 21665 ft | 411 kts | 225° |
| 2026-05-09 14:01 | 43.25596 | 143.19492 | 21666 ft | 410 kts | 225° |
| 2026-05-09 14:01 | 43.23490 | 143.16842 | 21660 ft | 410 kts | 225° |
| 2026-05-09 14:01 | 43.21384 | 143.14193 | 21657 ft | 410 kts | 225° |
| 2026-05-09 14:01 | 43.19278 | 143.11546 | 21654 ft | 411 kts | 225° |
| 2026-05-09 14:02 | 43.17197 | 143.08935 | 21643 ft | 411 kts | 226° |
| 2026-05-09 14:02 | 43.15089 | 143.06297 | 21644 ft | 410 kts | 225° |
| 2026-05-09 14:02 | 43.12978 | 143.03659 | 21650 ft | 410 kts | 225° |
| 2026-05-09 14:02 | 43.10882 | 143.01014 | 21648 ft | 409 kts | 228° |
| 2026-05-09 14:03 | 43.09028 | 142.98090 | 21648 ft | 405 kts | 237° |
| 2026-05-09 14:03 | 43.07342 | 142.94992 | 21650 ft | 405 kts | 237° |
| 2026-05-09 14:03 | 43.05656 | 142.91905 | 21618 ft | 405 kts | 237° |
| 2026-05-09 14:03 | 43.03972 | 142.88837 | 21345 ft | 402 kts | 236° |
| 2026-05-09 14:04 | 43.02294 | 142.85795 | 21055 ft | 400 kts | 236° |
| 2026-05-09 14:04 | 43.00623 | 142.82772 | 20789 ft | 398 kts | 236° |
| 2026-05-09 14:04 | 42.98955 | 142.79752 | 20546 ft | 397 kts | 236° |
| 2026-05-09 14:04 | 42.97298 | 142.76752 | 20251 ft | 393 kts | 236° |
| 2026-05-09 14:05 | 42.95687 | 142.73837 | 19707 ft | 388 kts | 236° |
| 2026-05-09 14:05 | 42.94069 | 142.70915 | 19163 ft | 383 kts | 236° |
| 2026-05-09 14:05 | 42.92473 | 142.68031 | 18618 ft | 379 kts | 236° |
| 2026-05-09 14:05 | 42.90893 | 142.65180 | 18075 ft | 374 kts | 236° |
| 2026-05-09 14:06 | 42.89333 | 142.62364 | 17491 ft | 370 kts | 236° |
| 2026-05-09 14:06 | 42.87794 | 142.59592 | 16960 ft | 363 kts | 236° |
| 2026-05-09 14:06 | 42.86283 | 142.56868 | 16430 ft | 357 kts | 236° |
| 2026-05-09 14:06 | 42.84791 | 142.54185 | 15873 ft | 352 kts | 236° |
| 2026-05-09 14:07 | 42.83385 | 142.51495 | 15338 ft | 345 kts | 243° |
| 2026-05-09 14:07 | 42.82397 | 142.48559 | 14785 ft | 338 kts | 254° |
| 2026-05-09 14:07 | 42.81893 | 142.45471 | 14241 ft | 332 kts | 265° |
| 2026-05-09 14:07 | 42.81861 | 142.42343 | 13676 ft | 330 kts | 277° |
| 2026-05-09 14:08 | 42.82283 | 142.39336 | 13185 ft | 324 kts | 287° |
| 2026-05-09 14:08 | 42.82990 | 142.36429 | 12599 ft | 322 kts | 289° |
| 2026-05-09 14:08 | 42.83695 | 142.33538 | 12029 ft | 321 kts | 289° |
| 2026-05-09 14:08 | 42.84389 | 142.30661 | 11464 ft | 318 kts | 289° |
| 2026-05-09 14:09 | 42.85077 | 142.27807 | 10909 ft | 316 kts | 289° |
| 2026-05-09 14:09 | 42.85755 | 142.24983 | 10508 ft | 308 kts | 289° |
| 2026-05-09 14:09 | 42.86403 | 142.22271 | 10388 ft | 293 kts | 289° |
| 2026-05-09 14:09 | 42.87023 | 142.19686 | 10256 ft | 281 kts | 290° |
| 2026-05-09 14:10 | 42.88215 | 142.14740 | 9745 ft | 270 kts | 290° |
| 2026-05-09 14:10 | 42.88801 | 142.12313 | 9610 ft | 270 kts | 290° |
| 2026-05-09 14:10 | 42.89385 | 142.09886 | 9480 ft | 269 kts | 290° |
| 2026-05-09 14:11 | 42.89965 | 142.07467 | 9352 ft | 268 kts | 290° |
| 2026-05-09 14:11 | 42.90541 | 142.05053 | 9213 ft | 267 kts | 290° |
| 2026-05-09 14:11 | 42.91116 | 142.02641 | 8898 ft | 267 kts | 290° |
| 2026-05-09 14:11 | 42.91687 | 142.00244 | 8521 ft | 265 kts | 290° |
| 2026-05-09 14:12 | 42.92257 | 141.97859 | 8135 ft | 264 kts | 290° |
| 2026-05-09 14:12 | 42.92816 | 141.95518 | 7752 ft | 262 kts | 291° |
| 2026-05-09 14:12 | 42.93377 | 141.93160 | 7381 ft | 260 kts | 292° |
| 2026-05-09 14:12 | 42.93935 | 141.90821 | 7039 ft | 258 kts | 292° |
| 2026-05-09 14:13 | 42.94492 | 141.88491 | 6633 ft | 258 kts | 292° |
| 2026-05-09 14:14 | 42.98166 | 141.72922 | 4119 ft | 229 kts | 293° |
| 2026-05-09 14:15 | 42.98590 | 141.70815 | 3823 ft | 233 kts | 282° |
| 2026-05-09 14:15 | 42.98369 | 141.68613 | 3764 ft | 241 kts | 253° |
| 2026-05-09 14:15 | 42.97342 | 141.66765 | 3670 ft | 253 kts | 223° |
| 2026-05-09 14:15 | 42.95677 | 141.65897 | 3455 ft | 265 kts | 186° |
| 2026-05-09 14:16 | 42.93828 | 141.66069 | 3097 ft | 269 kts | 173° |
| 2026-05-09 14:16 | 42.91990 | 141.66471 | 2743 ft | 264 kts | 173° |
| 2026-05-09 14:16 | 42.90210 | 141.66813 | 2390 ft | 253 kts | 175° |
| 2026-05-09 14:16 | 42.88501 | 141.67113 | 2080 ft | 240 kts | 177° |
| 2026-05-09 14:17 | 42.86909 | 141.67394 | 1718 ft | 221 kts | 178° |
| 2026-05-09 14:17 | 42.85444 | 141.67653 | 1419 ft | 203 kts | 178° |
| 2026-05-09 14:17 | 42.84117 | 141.67886 | 1144 ft | 192 kts | 178° |
| 2026-05-09 14:17 | 42.82834 | 141.68112 | 893 ft | 181 kts | 180° |
| 2026-05-09 14:18 | 42.81609 | 141.68327 | 669 ft | 174 kts | 178° |
| 2026-05-09 14:18 | 42.80439 | 141.68543 | 449 ft | 167 kts | 178° |
| 2026-05-09 14:18 | 42.79297 | 141.68737 | 210 ft | 163 kts | 179° |
| 2026-05-09 14:18 | 42.78189 | 141.68932 | 87 ft | 152 kts | 180° |
| 2026-05-09 14:19 | 42.77241 | 141.69090 | 81 ft | 118 kts | 173° |
| 2026-05-09 14:19 | 42.76605 | 141.69202 | 73 ft | 64 kts | 172° |
| 2026-05-09 14:19 | 42.76282 | 141.69217 | 77 ft | 33 kts | 218° |
| 2026-05-09 14:19 | 42.76321 | 141.69041 | 81 ft | 24 kts | 329° |
| 2026-05-09 14:20 | 42.76507 | 141.68994 | 80 ft | 32 kts | 352° |
| 2026-05-09 14:20 | 42.76731 | 141.68954 | 83 ft | 18 kts | 354° |
| 2026-05-09 14:20 | 42.76865 | 141.68933 | 80 ft | 20 kts | 353° |
| 2026-05-09 14:21 | 42.77224 | 141.68868 | 80 ft | 17 kts | 353° |
| 2026-05-09 14:21 | 42.77319 | 141.68851 | 83 ft | 24 kts | 352° |
| 2026-05-09 14:21 | 42.77490 | 141.68822 | 81 ft | 23 kts | 353° |
| 2026-05-09 14:21 | 42.77668 | 141.68790 | 83 ft | 26 kts | 353° |
| 2026-05-09 14:22 | 42.77948 | 141.68740 | 83 ft | 20 kts | 354° |
| 2026-05-09 14:22 | 42.78098 | 141.68716 | 83 ft | 14 kts | 353° |
| 2026-05-09 14:22 | 42.78231 | 141.68690 | 80 ft | 25 kts | 351° |
| 2026-05-09 14:22 | 42.78357 | 141.68661 | 80 ft | 19 kts | 340° |
| 2026-05-09 14:23 | 42.78434 | 141.68469 | 79 ft | 20 kts | 297° |
| 2026-05-09 14:23 | 42.78522 | 141.68345 | 81 ft | 15 kts | 4° |
| 2026-05-09 14:23 | 42.78602 | 141.68298 | 79 ft | 9 kts | 288° |
| 2026-05-09 14:23 | 42.78619 | 141.68246 | 78 ft | 0 kts | 294° |
| 2026-05-09 14:26 | 42.78620 | 141.68246 | 79 ft | 0 kts | 294° |